createdAt,value
2018-09-18T00:02:18.408Z,51.97
2018-09-18T00:04:42.383Z,52.77
2018-09-18T00:07:06.287Z,52.74
2018-09-18T00:09:30.185Z,52.84
2018-09-18T00:11:54.209Z,52.39
2018-09-18T00:14:18.401Z,52.25
2018-09-18T00:16:42.327Z,51.87
2018-09-18T00:19:06.458Z,52.30
2018-09-18T00:21:30.819Z,52.26
2018-09-18T00:23:54.692Z,52.13
2018-09-18T00:26:18.577Z,52.56
2018-09-18T00:28:42.482Z,52.17
2018-09-18T00:31:06.656Z,52.29
2018-09-18T00:33:30.895Z,53.46
2018-09-18T00:35:55.132Z,53.77
2018-09-18T00:38:19.058Z,53.44
2018-09-18T00:40:42.971Z,53.12
2018-09-18T00:43:06.953Z,53.57
2018-09-18T00:45:30.934Z,53.34
2018-09-18T00:47:54.783Z,53.52
2018-09-18T00:50:18.665Z,53.83
2018-09-18T00:52:42.530Z,53.24
2018-09-18T00:55:06.399Z,53.42
2018-09-18T00:57:30.360Z,53.84
2018-09-18T00:59:54.248Z,53.41
2018-09-18T01:02:18.129Z,53.51
2018-09-18T01:04:42.018Z,54.56
2018-09-18T01:07:05.868Z,54.84
2018-09-18T01:09:29.870Z,55.13
2018-09-18T01:11:53.773Z,54.78
2018-09-18T01:14:17.627Z,54.34
2018-09-18T01:16:41.519Z,53.88
2018-09-18T01:19:05.405Z,54.03
2018-09-18T01:21:29.411Z,54.03
2018-09-18T01:23:53.290Z,53.76
2018-09-18T01:26:17.164Z,53.63
2018-09-18T01:28:41.051Z,54.32
2018-09-18T01:31:05.302Z,54.33
2018-09-18T01:33:29.360Z,53.97
2018-09-18T01:35:53.215Z,54.08
2018-09-18T01:38:17.122Z,54.01
2018-09-18T01:40:40.986Z,54.61
2018-09-18T01:43:04.970Z,54.59
2018-09-18T01:45:28.852Z,54.52
2018-09-18T01:47:52.836Z,54.24
2018-09-18T01:50:16.749Z,54.34
2018-09-18T01:52:40.612Z,54.91
2018-09-18T01:55:04.491Z,54.79
2018-09-18T01:57:28.367Z,54.95
2018-09-18T01:59:52.689Z,54.48
2018-09-18T02:02:16.561Z,54.60
2018-09-18T02:04:40.626Z,55.45
2018-09-18T02:07:04.606Z,55.08
2018-09-18T02:09:28.465Z,55.16
2018-09-18T02:11:52.355Z,55.11
2018-09-18T02:14:16.220Z,54.96
2018-09-18T02:16:40.090Z,54.89
2018-09-18T02:19:03.963Z,55.04
2018-09-18T02:21:27.808Z,55.74
2018-09-18T02:23:51.699Z,55.39
2018-09-18T02:26:15.582Z,55.16
2018-09-18T02:28:39.530Z,55.30
2018-09-18T02:31:03.394Z,55.34
2018-09-18T02:33:27.434Z,55.73
2018-09-18T02:35:51.324Z,55.12
2018-09-18T02:38:15.188Z,55.12
2018-09-18T02:40:39.168Z,55.43
2018-09-18T02:43:03.038Z,55.18
2018-09-18T02:45:26.908Z,55.27
2018-09-18T02:47:50.782Z,55.64
2018-09-18T02:50:14.794Z,55.10
2018-09-18T02:52:38.859Z,56.51
2018-09-18T02:55:02.732Z,56.54
2018-09-18T02:57:26.660Z,56.59
2018-09-18T02:59:50.538Z,56.29
2018-09-18T03:02:14.522Z,55.43
2018-09-18T03:04:38.429Z,56.18
2018-09-18T03:07:02.327Z,55.81
2018-09-18T03:09:26.355Z,55.76
2018-09-18T03:11:50.228Z,56.07
2018-09-18T03:14:14.135Z,56.48
2018-09-18T03:16:38.046Z,56.12
2018-09-18T03:19:02.211Z,56.36
2018-09-18T03:21:26.138Z,56.49
2018-09-18T03:23:50.000Z,56.41
2018-09-18T03:26:13.906Z,56.50
2018-09-18T03:28:37.911Z,57.00
2018-09-18T03:31:01.821Z,57.16
2018-09-18T03:33:25.692Z,56.74
2018-09-18T03:35:49.708Z,57.00
2018-09-18T03:38:13.792Z,57.14
2018-09-18T03:40:37.693Z,56.77
2018-09-18T03:43:01.599Z,57.22
2018-09-18T03:45:25.494Z,57.21
2018-09-18T03:47:49.373Z,57.19
2018-09-18T03:50:13.309Z,56.91
2018-09-18T03:52:37.308Z,57.12
2018-09-18T03:55:01.167Z,57.10
2018-09-18T03:57:25.111Z,56.62
2018-09-18T03:59:48.998Z,57.74
2018-09-18T04:02:12.866Z,57.25
2018-09-18T04:04:36.792Z,57.60
2018-09-18T04:07:00.679Z,56.98
2018-09-18T04:09:24.617Z,57.19
2018-09-18T04:11:48.506Z,57.40
2018-09-18T04:14:12.491Z,57.13
2018-09-18T04:16:36.419Z,57.57
2018-09-18T04:19:00.420Z,57.34
2018-09-18T04:21:28.480Z,57.70
2018-09-18T04:23:52.391Z,57.83
2018-09-18T04:26:16.305Z,57.67
2018-09-18T04:28:40.186Z,57.90
2018-09-18T04:31:04.122Z,58.16
2018-09-18T04:33:27.990Z,57.98
2018-09-18T04:35:51.874Z,57.42
2018-09-18T04:38:18.730Z,57.56
2018-09-18T04:40:42.626Z,58.15
2018-09-18T04:43:06.513Z,57.72
2018-09-18T04:45:30.728Z,58.22
2018-09-18T04:47:54.640Z,57.91
2018-09-18T04:50:18.658Z,57.42
2018-09-18T04:52:42.918Z,57.27
2018-09-18T04:55:06.872Z,57.29
2018-09-18T04:57:30.717Z,57.74
2018-09-18T04:59:54.690Z,57.59
2018-09-18T05:02:18.600Z,57.81
2018-09-18T05:04:42.457Z,57.57
2018-09-18T05:07:06.387Z,57.55
2018-09-18T05:09:30.264Z,57.90
2018-09-18T05:11:54.345Z,58.16
2018-09-18T05:14:18.248Z,57.93
2018-09-18T05:16:42.160Z,57.99
2018-09-18T05:19:06.084Z,58.17
2018-09-18T05:21:30.024Z,57.67
2018-09-18T05:23:53.965Z,57.99
2018-09-18T05:26:17.880Z,57.81
2018-09-18T05:28:41.769Z,58.94
2018-09-18T05:31:05.693Z,59.23
2018-09-18T05:33:29.651Z,58.59
2018-09-18T05:35:53.589Z,58.24
2018-09-18T05:38:17.523Z,57.89
2018-09-18T05:40:41.378Z,57.66
2018-09-18T05:43:05.455Z,58.18
2018-09-18T05:45:29.320Z,57.94
2018-09-18T05:47:53.329Z,57.83
2018-09-18T05:50:17.193Z,57.38
2018-09-18T05:52:41.132Z,57.81
2018-09-18T05:55:05.256Z,57.73
2018-09-18T05:57:29.138Z,57.80
2018-09-18T05:59:53.009Z,57.33
2018-09-18T06:02:16.963Z,57.52
2018-09-18T06:04:41.022Z,57.10
2018-09-18T06:07:04.901Z,57.16
2018-09-18T06:09:28.807Z,57.57
2018-09-18T06:11:52.697Z,57.25
2018-09-18T06:14:16.589Z,57.49
2018-09-18T06:16:40.476Z,57.64
2018-09-18T06:19:04.546Z,58.34
2018-09-18T06:21:28.411Z,58.47
2018-09-18T06:23:52.307Z,57.86
2018-09-18T06:26:16.320Z,58.21
2018-09-18T06:28:40.193Z,58.25
2018-09-18T06:31:04.082Z,58.55
2018-09-18T06:33:27.985Z,57.84
2018-09-18T06:35:52.296Z,58.15
2018-09-18T06:38:16.183Z,57.63
2018-09-18T06:40:40.052Z,58.19
2018-09-18T06:43:03.939Z,57.60
2018-09-18T06:45:27.844Z,57.54
2018-09-18T06:47:51.759Z,56.69
2018-09-18T06:50:15.668Z,56.30
2018-09-18T06:52:39.652Z,55.70
2018-09-18T06:55:03.512Z,55.36
2018-09-18T06:57:27.469Z,55.41
2018-09-18T06:59:51.337Z,54.83
2018-09-18T07:02:16.462Z,54.82
2018-09-18T07:04:40.401Z,54.41
2018-09-18T07:07:04.276Z,53.24
2018-09-18T07:09:28.171Z,52.69
2018-09-18T07:11:52.031Z,52.50
2018-09-18T07:14:15.966Z,51.89
2018-09-18T07:16:39.963Z,51.92
2018-09-18T07:19:03.834Z,51.96
2018-09-18T07:21:27.713Z,50.80
2018-09-18T07:23:51.605Z,50.89
2018-09-18T07:26:15.467Z,51.53
2018-09-18T07:28:39.350Z,50.16
2018-09-18T07:31:03.346Z,50.04
2018-09-18T07:33:27.228Z,50.47
2018-09-18T07:35:51.108Z,50.29
2018-09-18T07:38:14.970Z,48.60
2018-09-18T07:40:38.856Z,48.83
2018-09-18T07:43:03.057Z,48.83
2018-09-18T07:45:26.931Z,48.67
2018-09-18T07:47:50.819Z,48.47
2018-09-18T07:50:14.998Z,47.92
2018-09-18T07:52:38.913Z,48.63
2018-09-18T07:55:02.794Z,46.16
2018-09-18T07:57:26.742Z,46.14
2018-09-18T07:59:50.584Z,45.43
2018-09-18T08:02:14.818Z,45.76
2018-09-18T08:04:38.704Z,45.36
2018-09-18T08:07:02.663Z,44.77
2018-09-18T08:09:26.616Z,44.00
2018-09-18T08:11:50.531Z,43.00
2018-09-18T08:14:14.589Z,42.91
2018-09-18T08:16:38.497Z,42.65
2018-09-18T08:19:02.478Z,41.99
2018-09-18T08:21:26.494Z,41.49
2018-09-18T08:23:50.364Z,41.14
2018-09-18T08:26:14.276Z,41.38
2018-09-18T08:28:38.138Z,40.83
2018-09-18T08:31:02.009Z,40.78
2018-09-18T08:33:26.004Z,40.55
2018-09-18T08:35:49.891Z,39.74
2018-09-18T08:38:13.791Z,39.71
2018-09-18T08:40:37.721Z,39.64
2018-09-18T08:43:01.606Z,38.67
2018-09-18T08:45:25.564Z,39.40
2018-09-18T08:47:49.499Z,39.28
2018-09-18T08:50:13.385Z,39.26
2018-09-18T08:52:37.401Z,38.21
2018-09-18T08:55:01.260Z,38.97
2018-09-18T08:57:25.287Z,38.03
2018-09-18T08:59:49.109Z,37.61
2018-09-18T09:02:13.028Z,37.74
2018-09-18T09:04:37.054Z,38.10
2018-09-18T09:07:01.003Z,38.08
2018-09-18T09:09:24.950Z,37.88
2018-09-18T09:11:49.042Z,37.88
2018-09-18T09:14:12.956Z,37.87
2018-09-18T09:16:36.839Z,37.65
2018-09-18T09:19:00.957Z,37.19
2018-09-18T09:21:24.946Z,37.08
2018-09-18T09:23:48.770Z,37.56
2018-09-18T09:26:12.787Z,37.01
2018-09-18T09:28:36.656Z,37.10
2018-09-18T09:31:00.581Z,37.62
2018-09-18T09:33:24.521Z,37.30
2018-09-18T09:35:48.424Z,36.83
2018-09-18T09:38:12.410Z,36.51
2018-09-18T09:40:36.293Z,36.94
2018-09-18T09:43:00.162Z,36.62
2018-09-18T09:45:24.072Z,36.83
2018-09-18T09:47:47.978Z,36.77
2018-09-18T09:50:12.029Z,36.41
2018-09-18T09:52:35.929Z,36.31
2018-09-18T09:54:59.820Z,36.46
2018-09-18T09:57:23.696Z,36.15
2018-09-18T09:59:47.572Z,36.10
2018-09-18T10:02:18.884Z,36.20
2018-09-18T10:04:42.754Z,35.89
2018-09-18T10:07:06.667Z,36.14
2018-09-18T10:09:30.566Z,36.31
2018-09-18T10:11:54.471Z,35.56
2018-09-18T10:14:18.531Z,35.62
2018-09-18T10:16:42.439Z,35.94
2018-09-18T10:19:06.387Z,35.67
2018-09-18T10:21:30.372Z,35.76
2018-09-18T10:23:54.311Z,35.52
2018-09-18T10:26:18.550Z,35.60
2018-09-18T10:28:42.313Z,35.84
2018-09-18T10:31:06.180Z,35.08
2018-09-18T10:33:30.266Z,34.94
2018-09-18T10:35:54.242Z,35.20
2018-09-18T10:38:18.221Z,35.25
2018-09-18T10:40:42.281Z,34.57
2018-09-18T10:43:06.240Z,34.47
2018-09-18T10:45:30.114Z,34.66
2018-09-18T10:47:53.999Z,33.88
2018-09-18T10:50:17.920Z,34.07
2018-09-18T10:52:41.848Z,34.02
2018-09-18T10:55:05.715Z,33.80
2018-09-18T10:57:29.703Z,33.69
2018-09-18T10:59:53.592Z,34.27
2018-09-18T11:02:17.633Z,33.65
2018-09-18T11:04:41.382Z,33.95
2018-09-18T11:07:05.576Z,33.61
2018-09-18T11:09:29.500Z,33.14
2018-09-18T11:11:53.349Z,32.70
2018-09-18T11:14:17.675Z,32.54
2018-09-18T11:16:41.736Z,33.11
2018-09-18T11:19:05.583Z,32.76
2018-09-18T11:21:29.539Z,31.85
2018-09-18T11:23:53.419Z,32.32
2018-09-18T11:26:17.263Z,32.82
2018-09-18T11:28:41.176Z,33.00
2018-09-18T11:31:05.020Z,33.11
2018-09-18T11:33:29.052Z,32.68
2018-09-18T11:35:52.918Z,32.81
2018-09-18T11:38:16.785Z,31.60
2018-09-18T11:40:40.698Z,31.35
2018-09-18T11:43:04.585Z,31.12
2018-09-18T11:45:28.547Z,32.13
2018-09-18T11:47:52.382Z,31.98
2018-09-18T11:50:16.277Z,31.68
2018-09-18T11:52:40.293Z,31.39
2018-09-18T11:55:04.253Z,31.31
2018-09-18T11:57:28.168Z,30.13
2018-09-18T11:59:52.175Z,30.82
2018-09-18T12:02:16.075Z,29.95
2018-09-18T12:04:40.090Z,30.86
2018-09-18T12:07:03.835Z,30.37
2018-09-18T12:09:27.762Z,29.22
2018-09-18T12:11:51.625Z,29.97
2018-09-18T12:14:15.483Z,29.90
2018-09-18T12:16:39.442Z,28.02
2018-09-18T12:19:03.419Z,27.84
2018-09-18T12:21:27.313Z,24.34
2018-09-18T12:23:51.204Z,21.59
2018-09-18T12:26:15.082Z,20.92
2018-09-18T12:28:39.124Z,20.17
2018-09-18T12:31:05.118Z,19.58
2018-09-18T12:33:32.888Z,18.94
2018-09-18T12:35:56.796Z,18.38
2018-09-18T12:38:20.695Z,18.25
2018-09-18T12:40:44.559Z,18.10
2018-09-18T12:43:08.475Z,17.54
2018-09-18T12:45:32.640Z,18.53
2018-09-18T12:47:56.592Z,18.11
2018-09-18T12:50:20.627Z,17.96
2018-09-18T12:52:44.359Z,17.86
2018-09-18T12:55:08.264Z,17.61
2018-09-18T12:57:32.294Z,17.01
2018-09-18T12:59:56.162Z,16.11
2018-09-18T13:02:20.004Z,15.73
2018-09-18T13:04:43.878Z,16.09
2018-09-18T13:07:07.894Z,17.52
2018-09-18T13:09:31.680Z,16.51
2018-09-18T13:11:55.623Z,17.52
2018-09-18T13:14:19.727Z,16.40
2018-09-18T13:16:43.556Z,16.67
2018-09-18T13:19:07.471Z,16.57
2018-09-18T13:21:31.466Z,16.99
2018-09-18T13:23:55.304Z,16.88
2018-09-18T13:26:19.248Z,16.31
2018-09-18T13:28:43.122Z,16.02
2018-09-18T13:31:07.039Z,16.75
2018-09-18T13:33:30.948Z,16.51
2018-09-18T13:35:54.863Z,16.01
2018-09-18T13:38:18.735Z,16.66
2018-09-18T13:40:42.658Z,16.41
2018-09-18T13:43:06.545Z,15.08
2018-09-18T13:45:30.498Z,16.01
2018-09-18T13:47:54.340Z,17.03
2018-09-18T13:50:18.308Z,17.17
2018-09-18T13:52:42.234Z,18.42
2018-09-18T13:55:06.193Z,17.60
2018-09-18T13:57:30.093Z,16.13
2018-09-18T13:59:54.112Z,17.46
2018-09-18T14:02:18.145Z,16.82
2018-09-18T14:04:41.902Z,17.45
2018-09-18T14:07:05.798Z,17.59
2018-09-18T14:09:29.729Z,16.13
2018-09-18T14:11:53.609Z,17.32
2018-09-18T14:14:17.602Z,17.16
2018-09-18T14:16:41.468Z,16.83
2018-09-18T14:19:05.387Z,17.90
2018-09-18T14:21:29.272Z,17.96
2018-09-18T14:23:53.183Z,17.92
2018-09-18T14:26:17.230Z,16.90
2018-09-18T14:28:41.083Z,16.56
2018-09-18T14:31:04.984Z,17.02
2018-09-18T14:33:28.913Z,18.42
2018-09-18T14:35:52.810Z,16.96
2018-09-18T14:38:16.893Z,16.91
2018-09-18T14:40:40.723Z,16.79
2018-09-18T14:43:04.579Z,17.11
2018-09-18T14:45:28.522Z,16.41
2018-09-18T14:47:52.428Z,17.85
2018-09-18T14:50:16.433Z,17.44
2018-09-18T14:52:40.395Z,17.02
2018-09-18T14:55:04.256Z,18.22
2018-09-18T14:57:28.210Z,18.85
2018-09-18T14:59:52.084Z,19.30
2018-09-18T15:02:16.106Z,19.08
2018-09-18T15:04:39.958Z,18.22
2018-09-18T15:07:03.898Z,18.28
2018-09-18T15:09:27.777Z,18.22
2018-09-18T15:11:51.650Z,19.43
2018-09-18T15:14:15.747Z,18.27
2018-09-18T15:16:39.619Z,18.40
2018-09-18T15:19:03.439Z,17.84
2018-09-18T15:21:27.390Z,17.74
2018-09-18T15:23:51.275Z,18.46
2018-09-18T15:26:15.250Z,18.21
2018-09-18T15:28:39.142Z,18.61
2018-09-18T15:31:03.306Z,18.56
2018-09-18T15:33:27.306Z,19.26
2018-09-18T15:35:51.197Z,18.23
2018-09-18T15:38:15.171Z,18.95
2018-09-18T15:40:39.074Z,18.54
2018-09-18T15:43:03.024Z,18.52
2018-09-18T15:45:27.166Z,19.00
2018-09-18T15:47:51.049Z,19.25
2018-09-18T15:50:15.008Z,18.50
2018-09-18T15:52:39.160Z,18.88
2018-09-18T15:55:03.105Z,19.65
2018-09-18T15:57:26.987Z,19.69
2018-09-18T15:59:50.885Z,19.99
2018-09-18T16:02:14.771Z,19.74
2018-09-18T16:04:38.864Z,21.35
2018-09-18T16:07:02.741Z,20.59
2018-09-18T16:09:26.847Z,20.66
2018-09-18T16:11:50.766Z,21.19
2018-09-18T16:14:14.712Z,21.23
2018-09-18T16:16:38.728Z,24.41
2018-09-18T16:19:02.713Z,24.93
2018-09-18T16:21:26.714Z,25.79
2018-09-18T16:23:50.625Z,25.56
2018-09-18T16:26:14.499Z,26.70
2018-09-18T16:28:38.429Z,27.02
2018-09-18T16:31:02.320Z,27.72
2018-09-18T16:33:26.324Z,28.48
2018-09-18T16:35:50.282Z,27.47
2018-09-18T16:38:14.181Z,28.09
2018-09-18T16:40:38.156Z,28.10
2018-09-18T16:43:02.216Z,28.53
2018-09-18T16:45:26.254Z,27.42
2018-09-18T16:47:50.345Z,29.46
2018-09-18T16:50:14.290Z,28.09
2018-09-18T16:52:38.369Z,29.75
2018-09-18T16:55:02.378Z,28.06
2018-09-18T16:57:26.285Z,28.77
2018-09-18T16:59:50.179Z,28.91
2018-09-18T17:02:14.079Z,29.20
2018-09-18T17:04:38.125Z,29.42
2018-09-18T17:07:02.139Z,29.52
2018-09-18T17:09:26.166Z,29.00
2018-09-18T17:11:50.075Z,29.34
2018-09-18T17:14:14.489Z,29.73
2018-09-18T17:16:38.425Z,29.64
2018-09-18T17:19:02.297Z,30.26
2018-09-18T17:21:26.216Z,30.34
2018-09-18T17:23:50.207Z,30.73
2018-09-18T17:26:14.105Z,30.34
2018-09-18T17:28:38.126Z,30.70
2018-09-18T17:31:01.950Z,31.29
2018-09-18T17:33:25.919Z,30.37
2018-09-18T17:35:49.957Z,30.51
2018-09-18T17:38:13.879Z,30.17
2018-09-18T17:40:37.841Z,31.43
2018-09-18T17:43:01.749Z,30.80
2018-09-18T17:45:25.741Z,31.79
2018-09-18T17:47:49.779Z,31.87
2018-09-18T17:50:13.779Z,31.68
2018-09-18T17:52:37.765Z,31.07
2018-09-18T17:55:01.748Z,32.20
2018-09-18T17:57:25.688Z,31.94
2018-09-18T17:59:49.714Z,31.13
2018-09-18T18:02:13.627Z,31.70
2018-09-18T18:04:37.732Z,32.57
2018-09-18T18:07:02.055Z,31.91
2018-09-18T18:09:26.023Z,32.69
2018-09-18T18:11:50.000Z,31.57
2018-09-18T18:14:14.417Z,32.48
2018-09-18T18:16:38.352Z,32.57
2018-09-18T18:19:02.305Z,32.48
2018-09-18T18:21:26.300Z,33.25
2018-09-18T18:23:50.201Z,32.45
2018-09-18T18:26:14.290Z,33.24
2018-09-18T18:28:38.234Z,33.52
2018-09-18T18:31:02.146Z,32.63
2018-09-18T18:33:26.128Z,33.64
2018-09-18T18:35:50.063Z,32.84
2018-09-18T18:38:14.024Z,33.14
2018-09-18T18:40:37.915Z,33.83
2018-09-18T18:43:01.818Z,33.18
2018-09-18T18:45:25.748Z,33.47
2018-09-18T18:47:49.730Z,34.11
2018-09-18T18:50:13.749Z,34.28
2018-09-18T18:52:37.748Z,34.68
2018-09-18T18:55:01.690Z,33.71
2018-09-18T18:57:25.765Z,33.68
2018-09-18T18:59:49.687Z,34.24
2018-09-18T19:02:13.714Z,33.81
2018-09-18T19:04:37.762Z,33.98
2018-09-18T19:07:32.431Z,34.21
2018-09-18T19:09:56.448Z,33.86
2018-09-18T19:12:20.486Z,34.81
2018-09-18T19:14:44.466Z,34.75
2018-09-18T19:17:08.439Z,34.79
2018-09-18T19:19:32.386Z,35.47
2018-09-18T19:21:56.350Z,35.71
2018-09-18T19:24:20.372Z,35.02
2018-09-18T19:26:44.420Z,34.99
2018-09-18T19:29:08.345Z,36.16
2018-09-18T19:31:32.279Z,35.88
2018-09-18T19:33:56.266Z,35.33
2018-09-18T19:36:20.318Z,35.51
2018-09-18T19:38:44.246Z,36.36
2018-09-18T19:41:08.152Z,36.22
2018-09-18T19:43:32.088Z,35.65
2018-09-18T19:45:56.008Z,35.46
2018-09-18T19:48:20.097Z,35.58
2018-09-18T19:50:44.018Z,36.91
2018-09-18T19:53:07.935Z,36.75
2018-09-18T19:55:31.891Z,35.67
2018-09-18T19:57:55.904Z,36.92
2018-09-18T20:00:19.925Z,37.14
2018-09-18T20:02:43.910Z,37.09
2018-09-18T20:05:07.944Z,37.87
2018-09-18T20:07:31.871Z,38.10
2018-09-18T20:09:55.816Z,38.25
2018-09-18T20:12:19.870Z,37.66
2018-09-18T20:14:43.833Z,37.81
2018-09-18T20:17:07.728Z,38.60
2018-09-18T20:19:31.790Z,38.83
2018-09-18T20:21:55.759Z,37.84
2018-09-18T20:24:19.673Z,39.16
2018-09-18T20:26:43.596Z,39.16
2018-09-18T20:29:07.805Z,39.44
2018-09-18T20:31:31.750Z,39.36
2018-09-18T20:33:55.738Z,39.68
2018-09-18T20:36:19.903Z,39.32
2018-09-18T20:38:43.721Z,38.96
2018-09-18T20:41:07.815Z,38.25
2018-09-18T20:43:31.778Z,39.73
2018-09-18T20:45:55.679Z,39.69
2018-09-18T20:48:19.723Z,40.97
2018-09-18T20:50:43.714Z,40.32
2018-09-18T20:53:07.543Z,39.12
2018-09-18T20:55:31.463Z,41.09
2018-09-18T20:57:55.392Z,42.05
2018-09-18T21:00:19.407Z,40.43
2018-09-18T21:02:43.340Z,40.34
2018-09-18T21:05:07.215Z,40.40
2018-09-18T21:07:31.161Z,40.88
2018-09-18T21:09:55.024Z,40.57
2018-09-18T21:12:20.035Z,40.83
2018-09-18T21:14:43.917Z,40.79
2018-09-18T21:17:07.864Z,40.45
2018-09-18T21:19:31.783Z,39.64
2018-09-18T21:21:55.677Z,39.37
2018-09-18T21:24:19.650Z,38.79
2018-09-18T21:26:43.554Z,39.00
2018-09-18T21:29:07.587Z,39.24
2018-09-18T21:31:31.501Z,40.71
2018-09-18T21:33:55.388Z,41.61
2018-09-18T21:36:19.391Z,44.32
2018-09-18T21:38:43.287Z,46.63
2018-09-18T21:41:07.223Z,47.07
2018-09-18T21:43:31.711Z,47.29
2018-09-18T21:45:55.641Z,47.86
2018-09-18T21:48:19.547Z,49.77
2018-09-18T21:50:43.611Z,47.76
2018-09-18T21:53:09.345Z,48.79
2018-09-18T21:55:33.260Z,48.94
2018-09-18T21:57:57.256Z,49.42
2018-09-18T22:00:21.124Z,49.05
2018-09-18T22:02:44.995Z,51.62
2018-09-18T22:05:09.014Z,49.82
2018-09-18T22:07:32.915Z,49.88
2018-09-18T22:09:56.841Z,50.20
2018-09-18T22:12:20.767Z,50.71
2018-09-18T22:14:44.705Z,50.54
2018-09-18T22:17:08.703Z,50.18
2018-09-18T22:19:32.613Z,50.69
2018-09-18T22:21:56.521Z,51.28
2018-09-18T22:24:20.468Z,51.16
2018-09-18T22:26:44.374Z,51.96
2018-09-18T22:29:08.376Z,51.33
2018-09-18T22:31:32.244Z,50.65
2018-09-18T22:33:56.092Z,51.18
2018-09-18T22:36:19.986Z,50.31
2018-09-18T22:38:43.870Z,51.03
2018-09-18T22:41:07.764Z,52.30
2018-09-18T22:43:31.642Z,53.00
2018-09-18T22:45:55.551Z,51.74
2018-09-18T22:48:19.457Z,51.84
2018-09-18T22:50:43.470Z,51.62
2018-09-18T22:53:07.376Z,52.76
2018-09-18T22:55:31.292Z,51.71
2018-09-18T22:57:55.351Z,51.69
2018-09-18T23:00:19.217Z,51.75
2018-09-18T23:02:43.128Z,51.86
2018-09-18T23:05:07.377Z,51.55
2018-09-18T23:07:31.257Z,51.48
2018-09-18T23:10:01.888Z,51.99
2018-09-18T23:12:25.803Z,52.18
2018-09-18T23:14:49.724Z,52.01
2018-09-18T23:17:13.666Z,52.06
2018-09-18T23:19:37.517Z,52.21
2018-09-18T23:22:01.481Z,51.99
2018-09-18T23:24:25.344Z,53.13
2018-09-18T23:26:49.218Z,51.93
2018-09-18T23:29:13.183Z,52.47
2018-09-18T23:31:37.596Z,52.38
2018-09-18T23:34:01.507Z,52.02
2018-09-18T23:36:25.438Z,53.60
2018-09-18T23:38:49.343Z,52.85
2018-09-18T23:41:13.264Z,52.84
2018-09-18T23:43:37.149Z,52.98
2018-09-18T23:46:01.037Z,52.55
2018-09-18T23:48:24.981Z,53.08
2018-09-18T23:50:48.872Z,53.54
2018-09-18T23:53:12.774Z,55.15
2018-09-18T23:55:36.677Z,54.48
2018-09-18T23:58:00.619Z,55.15
